Terminal Aerodrome Forecast
Issued by NWS

Home | Current Version | Previous Version | Text Only | Print | Product List | Glossary On
Versions: 1 2 3 4 5 6 7 8 9 10 11 12 13 14 15 16 17 18 19 20 21
000
FTUS46 KMTR 240539
TAFMRY
TAF
KMRY 240539Z 2406/2506 20005KT P6SM OVC006
     FM241100 VRB02KT 4SM BR OVC005
     FM241600 VRB03KT P6SM OVC006
     FM241900 29008KT P6SM FEW010 BKN140
     FM250100 26008KT P6SM BKN010=

USA.gov is the U.S. government's official web portal to all federal, state and local government web resources and services.